METAR AND TAF INFORMATION
METAR FOR LFBC
ADDS - METARS form results

(2358 UTC 24 March 2019)
Data provider http://aviationweather.gov/metar/data/
 
METAR text: LFBC 242330Z AUTO 02007KT CAVOK 10/04 Q1027
Conditions at: LFBC (CAZAUX POND (FAF, FR) observed 2330 UTC 24 March 2019
Temperature: 10.0°C (50°F)
Dewpoint: 4.0°C (39°F) [RH = 66%]
Pressure (altimeter): 30.32 inches Hg (1027.0 mb)
Winds: from the NNE (20 degrees) at 8 MPH (7 knots; 3.6 m/s)
Visibility: 6 or more miles (10+ km)
Ceiling: ceiling and visibility are OK
Clouds: unknown
Weather: no significant weather observed at this time

METAR text: LFBC 242300Z AUTO 02007KT CAVOK 11/05 Q1026
Conditions at: LFBC (CAZAUX POND (FAF, FR) observed 2300 UTC 24 March 2019
Temperature: 11.0°C (52°F)
Dewpoint: 5.0°C (41°F) [RH = 66%]
Pressure (altimeter): 30.30 inches Hg (1026.0 mb)
Winds: from the NNE (20 degrees) at 8 MPH (7 knots; 3.6 m/s)
Visibility: 6 or more miles (10+ km)
Ceiling: ceiling and visibility are OK
Clouds: unknown
Weather: no significant weather observed at this time

 AIRPORT MAP

 RUNWAY INFORMATION
Runway 06 Runway length 7900 ft Runway width 148 ft
Runway elevation 74 ft Runway displaced threshold 0 ft Runway heading 57
Runway 24 Runway length 7900 ft Runway width 148 ft
Runway elevation 83 ft Runway displaced threshold 0 ft Runway heading 237

 AIRPORT FREQUENCIES
Type APP Name APP Frequency 142.45 MHZ
Type TWR Name TWR Frequency 118.4 MHZ

 AIRPORT NEAR NAVIGATION AIDS
Type TACAN Name Cazaux Frequency 110800 KHZ
Type NDB Name Cazaux Frequency 382 KHZ